Time;durP1;ratioP1;P1;durP2;ratioP2;P2;SDS_P1;SDS_P2;PMS_P1;PMS_P2;Temp;Humidity;BMP_temperature;BMP_pressure;BME280_temperature;BME280_humidity;BME280_pressure;Samples;Min_cycle;Max_cycle;Signal;HPM_P1;HPM_P2
2023/01/01 00:01:43;;;;;;;32.03;8.85;;;14.60;99.90;;;;;;5028825;28;20029;-72
2023/01/01 00:04:14;;;;;;;21.00;8.65;;;14.60;99.90;;;;;;5028381;28;20033;-70
2023/01/01 00:06:40;;;;;;;20.88;8.32;;;14.60;99.90;;;;;;5027329;28;20037;-70
2023/01/01 00:11:50;;;;;;;23.27;7.22;;;14.50;99.90;;;;;;5028662;28;20461;-71
2023/01/01 00:14:15;;;;;;;16.55;6.68;;;14.50;99.90;;;;;;5026649;28;20037;-71
2023/01/01 00:16:41;;;;;;;13.90;6.70;;;14.50;99.90;;;;;;5028641;28;20463;-73
2023/01/01 00:19:07;;;;;;;22.63;6.60;;;14.50;99.90;;;;;;5030852;28;20715;-72
2023/01/01 00:21:32;;;;;;;19.25;6.15;;;14.50;99.90;;;;;;5028442;28;20092;-70
2023/01/01 00:23:58;;;;;;;13.45;5.57;;;14.50;99.90;;;;;;5028465;28;20067;-72
2023/01/01 00:26:23;;;;;;;14.13;4.93;;;14.50;99.90;;;;;;5028161;28;20037;-69
2023/01/01 00:28:49;;;;;;;16.92;5.25;;;14.50;99.90;;;;;;5028627;28;20036;-70
2023/01/01 00:31:17;;;;;;;13.65;5.57;;;14.50;99.90;;;;;;5027952;28;20065;-70
2023/01/01 00:33:44;;;;;;;16.27;5.90;;;14.50;99.90;;;;;;5026902;28;20037;-71
2023/01/01 00:36:13;;;;;;;18.13;6.45;;;14.50;99.90;;;;;;5028087;28;20040;-71
2023/01/01 00:38:39;;;;;;;14.20;5.70;;;14.50;99.90;;;;;;5027661;28;20044;-71
2023/01/01 00:41:05;;;;;;;13.40;5.82;;;14.50;99.90;;;;;;5027914;28;20037;-71
2023/01/01 00:43:31;;;;;;;18.80;5.20;;;14.50;99.90;;;;;;5027824;28;20410;-72
2023/01/01 00:45:57;;;;;;;12.00;4.38;;;14.60;99.90;;;;;;5027948;28;20038;-72
2023/01/01 00:48:23;;;;;;;10.60;4.00;;;14.50;99.90;;;;;;5027543;28;20030;-71
2023/01/01 00:50:50;;;;;;;9.15;3.15;;;14.50;99.90;;;;;;5026610;28;20056;-70
2023/01/01 00:53:15;;;;;;;8.80;3.28;;;14.50;99.90;;;;;;5026169;28;20041;-70
2023/01/01 00:55:42;;;;;;;8.77;2.55;;;14.60;99.90;;;;;;5027616;28;21566;-71
2023/01/01 00:58:09;;;;;;;13.10;3.00;;;14.60;99.90;;;;;;5027926;28;20120;-71
2023/01/01 01:00:35;;;;;;;5.43;2.38;;;14.60;99.90;;;;;;5027244;28;20025;-72
2023/01/01 01:03:00;;;;;;;8.93;2.63;;;14.60;99.90;;;;;;5027507;28;20498;-71
2023/01/01 01:05:26;;;;;;;7.03;2.08;;;14.60;99.90;;;;;;5026049;28;20030;-71
2023/01/01 01:07:52;;;;;;;13.23;2.45;;;14.70;99.90;;;;;;5028304;28;20059;-71
2023/01/01 01:10:20;;;;;;;10.23;2.40;;;14.70;99.90;;;;;;5027473;28;20042;-71
2023/01/01 01:12:45;;;;;;;14.45;2.13;;;14.60;99.90;;;;;;5027285;28;20090;-71
2023/01/01 01:15:11;;;;;;;10.90;2.72;;;14.70;99.90;;;;;;5026954;28;20462;-70
2023/01/01 01:17:37;;;;;;;11.27;2.53;;;14.70;99.90;;;;;;5027058;28;20064;-72
2023/01/01 01:20:04;;;;;;;8.35;2.70;;;14.60;99.90;;;;;;5027625;28;20029;-71
2023/01/01 01:22:29;;;;;;;6.80;1.80;;;14.60;99.90;;;;;;5027078;28;20033;-70
2023/01/01 01:24:56;;;;;;;6.13;1.60;;;14.60;99.90;;;;;;5027747;28;20032;-69
2023/01/01 01:27:22;;;;;;;12.48;2.15;;;14.70;99.90;;;;;;5026277;28;20108;-71
2023/01/01 01:29:47;;;;;;;10.85;1.83;;;14.60;99.90;;;;;;5028021;28;20132;-72
2023/01/01 01:32:13;;;;;;;7.63;1.73;;;14.60;99.90;;;;;;5027436;28;20121;-70
2023/01/01 01:34:39;;;;;;;8.93;1.77;;;14.60;99.90;;;;;;5027093;28;20042;-70
2023/01/01 01:37:05;;;;;;;10.90;2.00;;;14.60;99.90;;;;;;5026669;28;20026;-71
2023/01/01 01:39:31;;;;;;;14.15;2.22;;;14.50;99.90;;;;;;5027466;28;20037;-71
2023/01/01 01:41:56;;;;;;;9.25;2.15;;;14.50;99.90;;;;;;5027847;28;20449;-71
2023/01/01 01:44:52;;;;;;;10.55;1.63;;;14.50;99.90;;;;;;5025633;28;20421;-71
2023/01/01 01:47:42;;;;;;;8.82;1.95;;;14.50;99.90;;;;;;5023500;28;20390;-71
2023/01/01 01:50:34;;;;;;;7.00;1.73;;;14.40;99.90;;;;;;5025739;28;20447;-71
2023/01/01 01:53:06;;;;;;;6.57;1.60;;;14.40;99.90;;;;;;5023875;28;20045;-72
2023/01/01 01:55:36;;;;;;;6.18;1.70;;;14.40;99.90;;;;;;5025720;28;20030;-70
2023/01/01 01:58:03;;;;;;;14.98;1.27;;;14.40;99.90;;;;;;5025369;28;20476;-71
2023/01/01 02:00:29;;;;;;;7.18;1.20;;;14.40;99.90;;;;;;5024959;28;20034;-69
2023/01/01 02:03:24;;;;;;;7.57;1.45;;;14.40;99.90;;;;;;5027323;28;20410;-71
2023/01/01 02:05:50;;;;;;;12.45;1.80;;;14.30;99.90;;;;;;5022560;28;20057;-71
2023/01/01 02:08:17;;;;;;;3.95;1.65;;;14.30;99.90;;;;;;5027040;28;20112;-71
2023/01/01 02:10:43;;;;;;;4.63;1.10;;;14.30;99.90;;;;;;5026795;28;20645;-72
2023/01/01 02:13:09;;;;;;;7.35;1.15;;;14.20;99.90;;;;;;5026620;28;20093;-72
2023/01/01 02:15:42;;;;;;;4.32;1.08;;;14.20;99.90;;;;;;5024435;28;20045;-72
2023/01/01 02:18:15;;;;;;;5.13;1.30;;;14.20;99.90;;;;;;5024818;28;20441;-71
2023/01/01 02:20:49;;;;;;;5.50;1.40;;;14.20;99.90;;;;;;5026810;28;20022;-72
2023/01/01 02:23:29;;;;;;;4.22;0.93;;;14.30;99.90;;;;;;5021278;28;20030;-70
2023/01/01 02:26:17;;;;;;;10.95;1.42;;;14.30;99.90;;;;;;5024220;28;20040;-72
2023/01/01 02:28:58;;;;;;;6.88;0.90;;;14.30;99.90;;;;;;5049985;28;20052;-73
2023/01/01 02:31:28;;;;;;;4.50;1.00;;;14.30;99.90;;;;;;5023585;28;20156;-71
2023/01/01 02:33:58;;;;;;;;;;;14.30;99.90;;;;;;5027151;28;20037;-71
2023/01/01 02:36:25;;;;;;;7.03;2.20;;;14.30;99.90;;;;;;5024587;28;19924;-71
2023/01/01 02:38:54;;;;;;;4.93;0.77;;;14.30;99.90;;;;;;5027134;28;20052;-71
2023/01/01 02:41:27;;;;;;;8.00;1.42;;;14.30;99.90;;;;;;5026413;28;20567;-70
2023/01/01 02:43:53;;;;;;;2.92;1.02;;;14.30;99.90;;;;;;5027891;28;20309;-72
2023/01/01 02:46:19;;;;;;;9.02;1.30;;;14.30;99.90;;;;;;5027251;28;20152;-70
2023/01/01 02:48:46;;;;;;;8.80;1.58;;;14.30;99.90;;;;;;5026437;28;20037;-69
2023/01/01 02:51:50;;;;;;;8.80;1.67;;;14.20;99.90;;;;;;5021627;28;20601;-70
2023/01/01 02:54:18;;;;;;;5.10;0.77;;;14.30;99.90;;;;;;5025017;28;20049;-71
2023/01/01 02:56:56;;;;;;;3.15;0.88;;;14.30;99.90;;;;;;5021782;28;20037;-70
2023/01/01 03:02:31;;;;;;;;;;;14.20;99.90;;;;;;5026235;28;20076;-71
2023/01/01 03:05:03;;;;;;;3.08;0.90;;;14.20;99.90;;;;;;5027644;28;19921;-70
2023/01/01 03:07:52;;;;;;;10.60;1.95;;;14.20;99.90;;;;;;5026922;28;20030;-70
2023/01/01 03:10:26;;;;;;;7.57;0.82;;;14.10;99.90;;;;;;5006146;28;20051;-71
2023/01/01 03:13:25;;;;;;;6.00;0.77;;;14.10;99.90;;;;;;5029929;28;20091;-72
2023/01/01 03:16:12;;;;;;;4.03;0.85;;;14.10;99.90;;;;;;5028827;28;20029;-70
2023/01/01 03:19:09;;;;;;;10.35;0.93;;;14.10;99.90;;;;;;5052760;28;20037;-72
2023/01/01 03:21:52;;;;;;;5.53;0.80;;;14.10;99.90;;;;;;5026745;28;20041;-71
2023/01/01 03:24:30;;;;;;;5.65;0.80;;;14.10;99.90;;;;;;5027468;28;20401;-72
2023/01/01 03:27:00;;;;;;;3.67;1.05;;;14.10;99.90;;;;;;5029556;28;20041;-70
2023/01/01 03:29:29;;;;;;;5.32;0.85;;;14.10;99.90;;;;;;5029062;28;20449;-71
2023/01/01 03:31:58;;;;;;;4.05;0.93;;;14.10;99.90;;;;;;5029624;28;20025;-70
2023/01/01 03:34:37;;;;;;;6.00;1.13;;;14.10;99.90;;;;;;5026969;28;20385;-71
2023/01/01 03:37:11;;;;;;;6.77;1.23;;;14.10;99.90;;;;;;5027616;28;20049;-71
2023/01/01 03:39:58;;;;;;;4.72;0.70;;;14.00;99.90;;;;;;5027961;28;20091;-70
2023/01/01 03:42:40;;;;;;;9.63;1.92;;;13.90;99.90;;;;;;5026729;28;20029;-71
2023/01/01 03:45:37;;;;;;;7.80;1.10;;;13.60;99.90;;;;;;5028639;28;20052;-71
2023/01/01 03:48:04;;;;;;;8.07;1.48;;;13.30;99.90;;;;;;5013715;28;20053;-71
2023/01/01 03:50:45;;;;;;;4.15;1.02;;;13.00;99.90;;;;;;5027505;28;20048;-70
2023/01/01 03:53:30;;;;;;;7.95;0.90;;;12.90;99.90;;;;;;5025075;28;20143;-72
2023/01/01 03:56:05;;;;;;;2.58;0.85;;;12.80;99.90;;;;;;5027350;28;20029;-72
2023/01/01 03:58:36;;;;;;;12.88;1.40;;;12.80;99.90;;;;;;5028860;28;20037;-71
2023/01/01 04:01:14;;;;;;;5.30;1.02;;;12.90;99.90;;;;;;5029358;28;20025;-70
2023/01/01 04:03:40;;;;;;;7.80;1.20;;;12.90;99.90;;;;;;5024182;28;20660;-71
2023/01/01 04:06:06;;;;;;;15.23;2.00;;;12.90;99.90;;;;;;5028690;28;20052;-72
2023/01/01 04:08:34;;;;;;;8.68;1.20;;;12.90;99.90;;;;;;5028919;28;20065;-71
2023/01/01 04:12:00;;;;;;;5.75;1.10;;;13.00;99.90;;;;;;5028970;28;20022;-71
2023/01/01 04:13:50;;;;;;;6.47;0.63;;;13.00;99.90;;;;;;5026312;28;20044;-70
2023/01/01 04:16:15;;;;;;;5.40;0.93;;;12.90;99.90;;;;;;5028345;28;20033;-71
2023/01/01 04:18:41;;;;;;;3.08;1.00;;;12.90;99.90;;;;;;5028724;28;20025;-71
2023/01/01 04:21:06;;;;;;;5.55;0.80;;;12.80;99.90;;;;;;5028526;28;20051;-71
2023/01/01 04:23:32;;;;;;;2.83;0.60;;;12.80;99.90;;;;;;5028052;28;20099;-71
2023/01/01 04:25:57;;;;;;;2.60;0.40;;;12.80;99.90;;;;;;5028812;28;20039;-71
2023/01/01 04:28:23;;;;;;;7.30;2.15;;;12.80;99.90;;;;;;5028004;28;20037;-72
2023/01/01 04:30:49;;;;;;;10.65;1.20;;;12.80;99.90;;;;;;5028405;28;20498;-72
2023/01/01 04:33:14;;;;;;;2.75;0.70;;;12.70;99.90;;;;;;5028126;28;20124;-72
2023/01/01 04:35:40;;;;;;;6.13;1.02;;;12.80;99.90;;;;;;5028001;28;20034;-72
2023/01/01 04:38:05;;;;;;;4.88;0.73;;;12.70;99.90;;;;;;5028351;28;20033;-72
2023/01/01 04:40:31;;;;;;;3.22;0.93;;;12.70;99.90;;;;;;5027934;28;20038;-72
2023/01/01 04:42:56;;;;;;;4.68;0.77;;;12.60;99.90;;;;;;5028181;28;20033;-71
2023/01/01 04:45:22;;;;;;;7.75;0.90;;;12.60;99.90;;;;;;5027200;28;20026;-72
2023/01/01 04:47:47;;;;;;;5.63;1.08;;;12.60;99.90;;;;;;5027698;28;20065;-70
2023/01/01 04:50:13;;;;;;;4.00;1.02;;;12.60;99.90;;;;;;5027668;28;20401;-69
2023/01/01 04:52:39;;;;;;;8.20;0.90;;;12.60;99.90;;;;;;5027628;28;20033;-72
2023/01/01 04:55:05;;;;;;;6.45;1.08;;;12.60;99.90;;;;;;5027654;28;20037;-71
2023/01/01 04:57:30;;;;;;;5.38;0.80;;;12.50;99.90;;;;;;5027667;28;20958;-70
2023/01/01 04:59:56;;;;;;;4.35;1.17;;;12.60;99.90;;;;;;5027674;28;20041;-71
2023/01/01 05:02:22;;;;;;;7.60;0.75;;;12.50;99.90;;;;;;5026027;28;20397;-71
2023/01/01 05:04:47;;;;;;;8.90;1.25;;;12.50;99.90;;;;;;5027559;28;20079;-71
2023/01/01 05:07:13;;;;;;;9.27;0.95;;;12.50;99.90;;;;;;5025747;28;20608;-71
2023/01/01 05:09:38;;;;;;;4.97;1.25;;;12.60;99.90;;;;;;5028455;28;20069;-70
2023/01/01 05:12:04;;;;;;;7.65;1.35;;;12.60;99.90;;;;;;5024136;28;20044;-71
2023/01/01 05:14:30;;;;;;;2.55;0.47;;;12.50;99.90;;;;;;5027224;28;20049;-71
2023/01/01 05:16:55;;;;;;;10.07;1.48;;;12.50;99.90;;;;;;5028016;28;20161;-71
2023/01/01 05:19:21;;;;;;;7.15;0.93;;;12.60;99.90;;;;;;5027034;28;20695;-71
2023/01/01 05:21:46;;;;;;;4.30;0.50;;;12.60;99.90;;;;;;5025852;28;20033;-71
2023/01/01 05:24:12;;;;;;;4.97;1.15;;;12.60;99.90;;;;;;5026477;28;20056;-70
2023/01/01 05:26:41;;;;;;;3.95;0.98;;;12.60;99.90;;;;;;5027419;28;20516;-72
2023/01/01 05:29:07;;;;;;;6.45;0.80;;;12.60;99.90;;;;;;5022571;28;20029;-71
2023/01/01 05:31:34;;;;;;;5.05;0.50;;;12.50;99.90;;;;;;5027156;28;20056;-71
2023/01/01 05:34:01;;;;;;;3.72;0.50;;;12.50;99.90;;;;;;5026893;28;20410;-73
2023/01/01 05:36:30;;;;;;;5.70;1.13;;;12.50;99.90;;;;;;5027105;28;20118;-71
2023/01/01 05:38:57;;;;;;;3.70;0.98;;;12.50;99.90;;;;;;5027486;28;20121;-71
2023/01/01 05:41:23;;;;;;;6.88;1.05;;;12.50;99.90;;;;;;5027055;28;20030;-71
2023/01/01 05:43:49;;;;;;;0.85;0.10;;;12.50;99.90;;;;;;5026908;28;20040;-70
2023/01/01 05:46:18;;;;;;;7.68;0.50;;;12.50;99.90;;;;;;5025281;28;20520;-71
2023/01/01 05:48:44;;;;;;;2.50;0.95;;;12.50;99.90;;;;;;5026960;28;20390;-70
2023/01/01 05:51:12;;;;;;;5.03;0.65;;;12.60;99.90;;;;;;5026825;28;20692;-71
2023/01/01 05:53:38;;;;;;;8.50;0.88;;;12.50;99.90;;;;;;5026322;28;20125;-71
2023/01/01 05:56:05;;;;;;;4.53;0.85;;;12.50;99.90;;;;;;5027203;28;20037;-72
2023/01/01 05:58:32;;;;;;;1.48;0.30;;;12.60;99.90;;;;;;5026813;28;20139;-70
2023/01/01 06:01:09;;;;;;;2.30;0.50;;;12.50;99.90;;;;;;5027184;28;20029;-72
2023/01/01 06:03:35;;;;;;;2.10;0.68;;;12.50;99.90;;;;;;5021001;28;20087;-71
2023/01/01 06:06:06;;;;;;;6.38;0.57;;;12.50;99.90;;;;;;5024142;28;20033;-72
2023/01/01 06:08:31;;;;;;;4.93;0.88;;;12.50;99.90;;;;;;5023269;28;20048;-70
2023/01/01 06:10:59;;;;;;;2.90;0.25;;;12.50;99.90;;;;;;5027072;28;20037;-71
2023/01/01 06:13:25;;;;;;;4.15;0.77;;;12.50;99.90;;;;;;5026522;28;20129;-71
2023/01/01 06:15:58;;;;;;;2.50;0.45;;;12.50;99.90;;;;;;5026534;28;20120;-67
2023/01/01 06:18:25;;;;;;;1.92;0.40;;;12.40;99.90;;;;;;5024906;28;20171;-73
2023/01/01 06:20:51;;;;;;;3.05;0.52;;;12.40;99.90;;;;;;5026891;28;20495;-69
2023/01/01 06:23:17;;;;;;;4.22;0.45;;;12.50;99.90;;;;;;5026416;28;20025;-73
2023/01/01 06:25:43;;;;;;;6.75;0.32;;;12.50;99.90;;;;;;5026162;28;20030;-72
2023/01/01 06:28:09;;;;;;;9.45;1.35;;;12.40;99.90;;;;;;5026634;28;20033;-70
2023/01/01 06:30:36;;;;;;;3.88;0.63;;;12.40;99.90;;;;;;5026460;28;20041;-70
2023/01/01 06:33:02;;;;;;;1.98;0.20;;;12.40;99.90;;;;;;5029320;28;20029;-71
2023/01/01 06:35:28;;;;;;;2.78;0.35;;;12.40;99.90;;;;;;5028657;28;20083;-71
2023/01/01 06:37:53;;;;;;;2.47;0.30;;;12.30;99.90;;;;;;5030944;28;20041;-71
2023/01/01 06:40:19;;;;;;;3.33;0.55;;;12.30;99.90;;;;;;5029992;28;20445;-70
2023/01/01 06:42:44;;;;;;;2.70;0.47;;;12.30;99.90;;;;;;5029085;28;20095;-71
2023/01/01 06:45:12;;;;;;;4.28;1.17;;;12.20;99.90;;;;;;5030270;28;20061;-71
2023/01/01 06:47:37;;;;;;;4.10;0.60;;;12.20;99.90;;;;;;5029968;28;20034;-70
2023/01/01 06:50:03;;;;;;;2.22;0.40;;;12.20;99.90;;;;;;5030271;28;20087;-71
2023/01/01 06:52:29;;;;;;;1.85;0.50;;;12.20;99.90;;;;;;5026156;28;20021;-72
2023/01/01 06:54:55;;;;;;;1.65;0.45;;;12.20;99.90;;;;;;5029074;28;20501;-70
2023/01/01 06:57:20;;;;;;;4.47;0.50;;;12.20;99.90;;;;;;5029434;28;20398;-72
2023/01/01 06:59:46;;;;;;;1.55;0.40;;;12.20;99.90;;;;;;5029930;28;20045;-71
2023/01/01 07:02:12;;;;;;;6.35;0.40;;;12.10;99.90;;;;;;5030257;28;20741;-72
2023/01/01 07:04:38;;;;;;;1.75;0.30;;;12.10;99.90;;;;;;5029766;28;20064;-70
2023/01/01 07:07:04;;;;;;;4.13;0.60;;;12.10;99.90;;;;;;5027930;28;20409;-70
2023/01/01 07:09:29;;;;;;;6.97;0.60;;;12.10;99.90;;;;;;5029707;28;20037;-71
2023/01/01 07:11:55;;;;;;;4.90;0.40;;;12.10;99.90;;;;;;5030533;28;20029;-71
2023/01/01 07:14:21;;;;;;;3.05;0.50;;;12.00;99.90;;;;;;5029771;28;20478;-70
2023/01/01 07:16:46;;;;;;;3.42;0.80;;;12.00;99.90;;;;;;5030106;28;20029;-71
2023/01/01 07:19:12;;;;;;;3.50;0.22;;;12.00;99.90;;;;;;5030218;28;20121;-69
2023/01/01 07:21:47;;;;;;;7.25;0.88;;;12.00;99.90;;;;;;5027949;28;20517;-71
2023/01/01 07:24:14;;;;;;;3.90;0.43;;;12.00;99.90;;;;;;5029084;28;20041;-70
2023/01/01 07:26:40;;;;;;;1.77;0.32;;;11.90;99.90;;;;;;5029487;28;20029;-71
2023/01/01 07:29:09;;;;;;;3.17;0.80;;;11.90;99.90;;;;;;5029727;28;20555;-72
2023/01/01 07:31:36;;;;;;;17.38;1.15;;;11.90;99.90;;;;;;5029298;28;20033;-71
2023/01/01 07:34:02;;;;;;;3.15;0.85;;;11.90;99.90;;;;;;5029247;28;20040;-70
2023/01/01 07:36:28;;;;;;;7.18;1.23;;;11.90;99.90;;;;;;5030053;28;20038;-70
2023/01/01 07:38:53;;;;;;;5.13;0.95;;;11.80;99.90;;;;;;5032719;28;20521;-72
2023/01/01 07:41:19;;;;;;;9.05;0.60;;;11.80;99.90;;;;;;5029150;28;20033;-71
2023/01/01 07:43:44;;;;;;;5.88;0.50;;;11.80;99.90;;;;;;5028800;28;20030;-71
2023/01/01 07:46:15;;;;;;;3.08;0.77;;;11.80;99.90;;;;;;5029340;28;20029;-71
2023/01/01 07:48:41;;;;;;;4.75;0.38;;;11.80;99.90;;;;;;5029652;28;20468;-71
2023/01/01 07:51:07;;;;;;;2.33;0.50;;;11.80;99.90;;;;;;5027160;28;20445;-71
2023/01/01 07:53:32;;;;;;;6.35;1.08;;;11.70;99.90;;;;;;5027753;28;20068;-72
2023/01/01 07:55:58;;;;;;;6.72;0.70;;;11.60;99.90;;;;;;5029742;28;20033;-71
2023/01/01 07:58:23;;;;;;;2.50;0.45;;;11.60;99.90;;;;;;5029539;28;20034;-70
2023/01/01 08:00:49;;;;;;;3.47;0.65;;;11.60;99.90;;;;;;5025985;28;20049;-70
2023/01/01 08:03:15;;;;;;;7.82;0.90;;;11.50;99.90;;;;;;5029072;28;20109;-71
2023/01/01 08:05:41;;;;;;;2.88;0.65;;;11.40;99.90;;;;;;5029334;28;20045;-73
2023/01/01 08:08:07;;;;;;;5.22;0.70;;;11.50;99.90;;;;;;5052828;28;20506;-72
2023/01/01 08:10:33;;;;;;;2.92;0.30;;;11.50;99.90;;;;;;5027774;28;20049;-71
2023/01/01 08:13:03;;;;;;;5.00;0.40;;;11.50;99.90;;;;;;5028474;28;20338;-71
2023/01/01 08:15:29;;;;;;;4.03;0.45;;;11.40;99.90;;;;;;5027743;28;20044;-71
2023/01/01 08:17:56;;;;;;;7.15;0.65;;;11.40;99.90;;;;;;5028297;28;20034;-71
2023/01/01 08:20:22;;;;;;;4.30;0.75;;;11.30;99.90;;;;;;5029139;28;20394;-70
2023/01/01 08:22:47;;;;;;;4.78;0.52;;;11.30;99.90;;;;;;5029394;28;20033;-71
2023/01/01 08:25:13;;;;;;;4.57;0.55;;;11.30;99.90;;;;;;5027357;28;20509;-70
2023/01/01 08:27:38;;;;;;;4.13;0.60;;;11.40;99.90;;;;;;5029027;28;20032;-71
2023/01/01 08:30:05;;;;;;;4.90;0.40;;;11.30;99.90;;;;;;5029022;28;20501;-71
2023/01/01 08:32:30;;;;;;;8.25;0.70;;;11.30;99.90;;;;;;5028726;28;20056;-71
2023/01/01 08:34:56;;;;;;;6.13;0.73;;;11.30;99.90;;;;;;5029100;28;20033;-70
2023/01/01 08:37:22;;;;;;;2.95;0.50;;;11.30;99.90;;;;;;5029002;28;20045;-71
2023/01/01 08:39:52;;;;;;;4.38;1.15;;;11.30;99.90;;;;;;5028925;28;20036;-71
2023/01/01 08:42:17;;;;;;;7.53;0.70;;;11.30;99.90;;;;;;5029019;28;20118;-71
2023/01/01 08:44:43;;;;;;;4.32;0.93;;;11.30;99.90;;;;;;5028817;28;20494;-71
2023/01/01 08:47:20;;;;;;;4.15;0.50;;;11.30;99.90;;;;;;5028845;28;20038;-70
2023/01/01 08:49:46;;;;;;;5.03;0.70;;;11.30;99.90;;;;;;5029104;28;20448;-72
2023/01/01 08:52:12;;;;;;;5.55;0.85;;;11.30;99.90;;;;;;5028606;28;20033;-69
2023/01/01 08:54:37;;;;;;;5.25;0.50;;;11.40;99.90;;;;;;5027816;28;20033;-70
2023/01/01 08:57:04;;;;;;;2.65;0.55;;;11.40;99.90;;;;;;5028502;28;20034;-71
2023/01/01 08:59:29;;;;;;;4.07;1.15;;;11.40;99.90;;;;;;5027926;28;20104;-70
2023/01/01 09:01:55;;;;;;;6.90;0.52;;;11.40;99.90;;;;;;5029056;28;20155;-71
2023/01/01 09:04:20;;;;;;;10.57;0.95;;;11.40;99.90;;;;;;5024413;28;20037;-70
2023/01/01 09:06:46;;;;;;;5.82;0.60;;;11.50;99.90;;;;;;5026390;28;20080;-72
2023/01/01 09:09:12;;;;;;;4.65;0.63;;;11.50;99.90;;;;;;5028420;28;20040;-71
2023/01/01 09:11:37;;;;;;;4.65;1.17;;;11.50;99.90;;;;;;5026498;28;20053;-72
2023/01/01 09:14:03;;;;;;;8.90;1.42;;;11.50;99.90;;;;;;5026503;28;20045;-72
2023/01/01 09:16:29;;;;;;;5.40;0.45;;;11.50;99.90;;;;;;5028003;28;20040;-71
2023/01/01 09:18:54;;;;;;;1.63;0.32;;;11.60;99.90;;;;;;5028649;28;20029;-70
2023/01/01 09:21:20;;;;;;;3.00;1.00;;;11.50;99.90;;;;;;5023897;28;20056;-71
2023/01/01 09:23:45;;;;;;;9.80;1.30;;;11.50;99.90;;;;;;5031671;28;20083;-71
2023/01/01 09:26:11;;;;;;;7.43;1.02;;;11.50;99.90;;;;;;5027539;28;20128;-67
2023/01/01 09:28:37;;;;;;;7.22;0.77;;;11.60;99.90;;;;;;5027804;28;20049;-72
2023/01/01 09:31:05;;;;;;;3.83;0.63;;;11.60;99.90;;;;;;5026330;28;20049;-70
2023/01/01 09:33:31;;;;;;;7.97;0.70;;;11.70;99.90;;;;;;5027475;28;20086;-70
2023/01/01 09:36:22;;;;;;;8.18;1.00;;;11.80;99.90;;;;;;5028410;28;20367;-70
2023/01/01 09:38:49;;;;;;;9.25;0.90;;;11.80;99.90;;;;;;5027084;28;20393;-70
2023/01/01 09:41:35;;;;;;;5.63;1.38;;;11.90;99.90;;;;;;5027528;28;20101;-71
2023/01/01 09:44:07;;;;;;;14.73;1.55;;;12.00;99.90;;;;;;5023711;28;20490;-71
2023/01/01 09:46:33;;;;;;;6.90;0.80;;;12.10;99.90;;;;;;5026888;28;20100;-72
2023/01/01 09:49:43;;;;;;;4.97;0.68;;;12.20;99.90;;;;;;5027827;28;20032;-71
2023/01/01 09:52:13;;;;;;;2.05;0.65;;;12.30;99.90;;;;;;5025505;28;20426;-71
2023/01/01 09:54:55;;;;;;;4.85;1.02;;;12.40;99.90;;;;;;5027126;28;20033;-71
2023/01/01 09:57:29;;;;;;;4.13;0.60;;;12.50;99.90;;;;;;5023507;28;20076;-71
2023/01/01 09:59:59;;;;;;;5.07;1.45;;;12.50;99.90;;;;;;5024740;28;20029;-71
2023/01/01 10:03:05;;;;;;;8.02;0.65;;;12.60;99.90;;;;;;5028683;28;20038;-71
2023/01/01 10:05:53;;;;;;;5.82;0.70;;;12.70;99.90;;;;;;5024240;28;20033;-71
2023/01/01 10:09:06;;;;;;;8.02;0.90;;;12.70;99.90;;;;;;5027704;28;20136;-71
2023/01/01 10:11:32;;;;;;;2.60;0.50;;;12.80;99.90;;;;;;4976768;28;20035;-70
2023/01/01 10:14:00;;;;;;;5.10;0.73;;;12.70;99.90;;;;;;5023049;28;20048;-70
2023/01/01 10:16:41;;;;;;;5.75;0.70;;;12.70;99.90;;;;;;5030920;28;20048;-73
2023/01/01 10:19:25;;;;;;;6.00;0.82;;;12.70;99.90;;;;;;5029760;28;20127;-71
2023/01/01 10:21:54;;;;;;;5.90;1.00;;;12.60;99.90;;;;;;5050905;28;20440;-70
2023/01/01 10:24:41;;;;;;;3.70;0.52;;;12.50;99.90;;;;;;5030734;28;20717;-71
2023/01/01 10:27:31;;;;;;;6.45;0.70;;;12.60;99.90;;;;;;5029245;28;20041;-70
2023/01/01 10:30:00;;;;;;;7.97;1.70;;;12.50;99.90;;;;;;5028096;28;20040;-71
2023/01/01 10:32:35;;;;;;;8.32;0.77;;;12.40;99.90;;;;;;5030236;28;20034;-71
2023/01/01 10:35:15;;;;;;;8.05;0.80;;;12.50;99.90;;;;;;5031144;28;20044;-72
2023/01/01 10:37:41;;;;;;;10.23;1.27;;;12.50;99.90;;;;;;5030719;28;20125;-72
2023/01/01 10:40:21;;;;;;;9.35;0.90;;;12.50;99.90;;;;;;5028876;28;20388;-71
2023/01/01 10:42:49;;;;;;;6.22;0.70;;;12.60;99.90;;;;;;5026486;28;20600;-71
2023/01/01 10:45:34;;;;;;;6.10;0.80;;;12.60;99.90;;;;;;5028770;28;20037;-71
2023/01/01 10:48:15;;;;;;;4.80;0.60;;;12.70;99.90;;;;;;5028666;28;20045;-72
2023/01/01 10:50:43;;;;;;;11.05;1.33;;;12.70;99.90;;;;;;5030340;28;20525;-71
2023/01/01 10:53:40;;;;;;;5.82;1.10;;;12.80;99.90;;;;;;5030094;28;20697;-72
2023/01/01 10:56:33;;;;;;;6.28;0.90;;;12.80;99.90;;;;;;5028897;28;20025;-71
2023/01/01 10:58:58;;;;;;;3.50;1.05;;;12.80;99.90;;;;;;5028149;28;20117;-70
2023/01/01 11:01:27;;;;;;;4.70;1.33;;;12.80;99.90;;;;;;5029888;28;20026;-71
2023/01/01 11:04:22;;;;;;;8.00;0.90;;;12.80;99.90;;;;;;5028215;28;20045;-70
2023/01/01 11:06:47;;;;;;;8.48;1.10;;;12.90;99.90;;;;;;5021241;28;20034;-72
2023/01/01 11:09:25;;;;;;;2.85;0.57;;;12.90;99.90;;;;;;5028539;28;20091;-71
2023/01/01 11:12:06;;;;;;;4.95;0.73;;;12.90;99.90;;;;;;5026597;28;20516;-71
2023/01/01 11:14:38;;;;;;;9.50;1.55;;;12.90;99.90;;;;;;5029247;28;20068;-72
2023/01/01 11:17:04;;;;;;;8.48;0.90;;;13.00;99.90;;;;;;5029223;28;20037;-71
2023/01/01 11:19:32;;;;;;;4.28;0.70;;;12.90;99.90;;;;;;5029433;28;20116;-71
2023/01/01 11:21:59;;;;;;;3.47;0.95;;;12.90;99.90;;;;;;5029668;28;20079;-71
2023/01/01 11:24:32;;;;;;;5.55;0.98;;;12.90;99.90;;;;;;5029415;28;20025;-72
2023/01/01 11:27:30;;;;;;;7.38;0.90;;;12.90;99.90;;;;;;5029651;28;20033;-71
2023/01/01 11:30:24;;;;;;;5.35;1.13;;;12.80;99.90;;;;;;5008404;28;20044;-71
2023/01/01 11:32:54;;;;;;;5.28;0.55;;;12.70;99.90;;;;;;5029164;28;20040;-72
2023/01/01 11:35:22;;;;;;;6.57;0.60;;;12.70;99.90;;;;;;5029355;28;20486;-71
2023/01/01 11:37:50;;;;;;;9.15;1.48;;;12.60;99.90;;;;;;5029555;28;20041;-70
2023/01/01 11:40:37;;;;;;;4.75;0.90;;;12.70;99.90;;;;;;5027539;28;20048;-70
2023/01/01 11:43:05;;;;;;;5.50;0.93;;;12.70;99.90;;;;;;5028254;28;20061;-70
2023/01/01 11:45:39;;;;;;;5.03;1.60;;;12.60;99.90;;;;;;5028840;28;20034;-71
2023/01/01 11:48:35;;;;;;;9.02;0.93;;;12.70;99.90;;;;;;5029261;28;20052;-72
2023/01/01 11:51:06;;;;;;;7.97;1.55;;;12.70;99.90;;;;;;5020160;28;20041;-69
2023/01/01 11:53:35;;;;;;;8.20;1.00;;;12.70;99.90;;;;;;5028631;28;20121;-70
2023/01/01 11:56:01;;;;;;;6.53;1.30;;;12.70;99.90;;;;;;5029044;28;20109;-68
2023/01/01 11:58:34;;;;;;;9.48;1.60;;;12.60;99.90;;;;;;5028649;28;20120;-73
2023/01/01 12:01:17;;;;;;;4.30;1.17;;;12.70;99.90;;;;;;5029179;28;20378;-70
2023/01/01 12:04:00;;;;;;;7.03;1.45;;;12.70;99.90;;;;;;5024212;28;20397;-71
2023/01/01 12:06:39;;;;;;;4.97;1.10;;;12.80;99.90;;;;;;5026961;28;20025;-71
2023/01/01 12:09:28;;;;;;;8.85;1.08;;;12.80;99.90;;;;;;5028771;28;20104;-72
2023/01/01 12:12:06;;;;;;;6.75;1.58;;;12.80;99.90;;;;;;5026052;28;20041;-72
2023/01/01 12:14:46;;;;;;;7.75;2.00;;;12.80;99.90;;;;;;5026657;28;20041;-71
2023/01/01 12:17:16;;;;;;;10.77;1.15;;;12.80;99.90;;;;;;5024829;28;20425;-71
2023/01/01 12:19:57;;;;;;;4.80;1.10;;;12.90;99.90;;;;;;5025266;28;20551;-70
2023/01/01 12:22:23;;;;;;;7.28;0.98;;;12.90;99.90;;;;;;5024283;28;20501;-70
2023/01/01 12:24:50;;;;;;;6.30;1.35;;;13.00;99.90;;;;;;5028685;28;20033;-72
2023/01/01 12:27:30;;;;;;;9.82;1.88;;;13.00;99.90;;;;;;5028821;28;20022;-71
2023/01/01 12:30:21;;;;;;;4.70;0.80;;;13.00;99.90;;;;;;5028746;28;20026;-71
2023/01/01 12:33:00;;;;;;;5.95;1.35;;;13.00;99.90;;;;;;5024792;28;20092;-69
2023/01/01 12:36:02;;;;;;;5.70;0.90;;;13.00;99.90;;;;;;5028608;28;20116;-71
2023/01/01 12:38:45;;;;;;;9.05;2.28;;;13.00;99.90;;;;;;5027491;28;20033;-71
2023/01/01 12:42:03;;;;;;;10.18;1.08;;;13.00;99.90;;;;;;5024283;28;20029;-70
2023/01/01 12:44:55;;;;;;;7.20;1.40;;;13.00;99.90;;;;;;5023678;28;20041;-71
2023/01/01 12:47:51;;;;;;;10.43;0.98;;;13.10;99.90;;;;;;5025185;28;20037;-71
2023/01/01 12:50:38;;;;;;;13.07;1.67;;;13.00;99.90;;;;;;5024634;28;20051;-72
2023/01/01 12:53:36;;;;;;;8.18;1.38;;;13.00;99.90;;;;;;5027961;28;20101;-70
2023/01/01 12:56:36;;;;;;;7.40;2.17;;;13.00;99.90;;;;;;5021366;28;20033;-71
2023/01/01 12:59:11;;;;;;;5.85;0.82;;;12.90;99.90;;;;;;5050584;28;20065;-70
2023/01/01 13:01:37;;;;;;;2.60;1.15;;;13.00;99.90;;;;;;5027308;28;20703;-71
2023/01/01 13:04:13;;;;;;;9.13;1.20;;;13.00;99.90;;;;;;5026191;28;20044;-71
2023/01/01 13:06:55;;;;;;;3.67;0.80;;;12.90;99.90;;;;;;5022670;28;20037;-71
2023/01/01 13:09:27;;;;;;;17.50;0.90;;;12.90;99.90;;;;;;5025757;28;20033;-70
2023/01/01 13:12:05;;;;;;;10.98;2.08;;;12.90;99.90;;;;;;5027232;28;20087;-71
2023/01/01 13:14:40;;;;;;;6.75;1.63;;;12.90;99.90;;;;;;5026985;28;20505;-71